Ingalls, Kansas
Current Conditions -  °F | °C
As of 10:54 AM on Saturday 25 Oct 2014 (Local Time) from KGCK Reporting Station
Clear Clear  
Wind Chill: 69°   Ceiling: Unl
Heat Index: 69°   Visibility: 10mi
Dew Point: 44°   Wind: 6mph
Humidity: 40%   Direction: 260°W
Pressure: 30.11"   Gusts: NA
Location:  37.83°N, 100.45°W
Report Text: KGCK 251554Z 26005KT 10SM CLR 21/07 A3011 RMK AO2 SLP173 T02060067
Loading
Personal Weather Stations






























Interactive Weather Map
Tropical Storm Tracking
New forecast layout! Learn more

10-Day Weather Forecast

Advertisements
Track Severe Weather on mobile